Date,TemperatureHighF,TemperatureAvgF,TemperatureLowF,DewpointHighF,DewpointAvgF,DewpointLowF,HumidityHigh,HumidityAvg,HumidityLow,PressureMaxIn,PressureMinIn,WindSpeedMaxMPH,WindSpeedAvgMPH,GustSpeedMaxMPH,PrecipitationSumIn
2013-1-1,35.2,27.8,15.8,24.7,16.6,3.0,75,62,49,29.55,29.38,13,5,14,0.00
2013-1-2,27.0,16.6,7.5,13.8,7.3,-0.7,81,67,55,29.72,29.54,8,3,11,0.00
2013-1-3,21.9,11.4,-0.8,9.4,-1.9,-9.9,72,56,30,29.75,29.64,6,3,8,0.00
2013-1-4,34.5,26.7,15.1,23.0,18.4,9.9,87,71,60,29.61,29.47,9,4,12,0.00
2013-1-5,40.5,31.1,19.4,23.2,19.3,13.9,81,62,46,29.89,29.50,9,3,12,0.02
2013-1-6,40.1,30.0,20.7,27.3,23.8,16.1,94,78,60,29.85,29.59,7,2,11,0.04
2013-1-7,40.1,28.9,16.3,28.3,19.9,12.4,92,71,40,30.02,29.62,7,2,10,0.00
2013-1-8,42.4,33.1,17.1,27.4,24.2,13.9,87,71,54,30.00,29.92,8,4,14,0.01
2013-1-9,42.6,34.2,19.9,35.0,27.4,18.5,95,77,52,30.01,29.68,8,3,12,0.00
2013-1-10,44.4,37.7,29.8,27.2,23.4,21.4,72,57,42,30.17,29.71,13,5,27,0.00
2013-1-11,36.1,30.7,21.9,34.3,26.0,19.1,99,83,60,30.16,29.84,4,1,8,0.08
2013-1-12,42.8,38.3,34.3,42.0,37.9,34.1,99,98,97,29.84,29.78,4,1,5,0.05
2013-1-13,47.7,43.6,38.1,47.4,43.3,37.9,99,99,98,29.81,29.66,7,2,8,0.00
2013-1-14,53.6,45.4,34.7,49.6,40.0,26.6,99,83,50,29.90,29.55,8,3,12,0.02
2013-1-15,39.6,33.0,27.7,26.4,24.7,23.4,87,72,54,29.95,29.87,4,1,7,0.00
2013-1-16,31.5,30.1,27.1,31.0,28.2,22.5,99,93,71,29.88,29.48,2,0,4,0.00
2013-1-17,37.8,31.5,25.2,32.0,25.9,12.1,99,81,57,29.73,29.49,5,1,8,0.08
2013-1-18,24.4,18.3,11.3,14.1,1.9,-4.5,70,49,30,30.04,29.67,8,3,13,0.00
2013-1-19,42.6,33.2,18.9,30.4,20.5,7.3,77,60,46,29.97,29.55,15,6,17,0.02
2013-1-20,49.1,36.9,24.1,29.9,23.4,8.2,79,59,28,29.57,29.24,17,6,17,0.00
2013-1-21,24.6,20.0,15.8,17.2,10.1,4.6,93,66,46,29.70,29.42,12,2,12,0.00
2013-1-22,21.6,15.4,7.2,17.3,4.1,-5.2,95,64,33,29.69,29.39,8,2,10,0.00
2013-1-23,13.5,5.8,0.5,-0.7,-7.3,-10.7,72,54,38,29.73,29.67,8,4,12,0.00
2013-1-24,16.2,6.3,-4.5,-5.0,-9.4,-10.8,75,50,31,29.84,29.68,10,4,12,0.00
2013-1-25,18.1,11.4,3.9,9.1,-5.7,-9.9,84,47,29,29.91,29.67,6,3,9,0.00
2013-1-26,22.3,12.9,5.5,9.0,1.1,-6.7,88,62,34,29.85,29.61,8,2,14,0.00
2013-1-27,28.9,16.7,4.1,2.9,0.5,-2.0,79,51,28,30.08,29.85,12,3,12,0.00
2013-1-28,27.1,21.3,13.5,24.4,12.3,0.3,99,71,39,30.06,29.64,4,1,5,0.00
2013-1-29,36.0,29.6,24.3,32.3,28.2,23.8,99,95,78,29.83,29.64,4,1,6,0.05
2013-1-30,56.5,47.3,32.5,51.4,43.3,32.3,99,87,72,29.78,29.15,11,5,18,0.07
2013-1-31,59.2,43.8,27.3,54.7,33.9,13.4,87,69,46,29.24,28.69,20,8,21,0.66
2013-2-1,30.0,24.1,17.4,15.4,8.3,2.9,72,51,37,29.70,29.24,12,5,15,0.00
2013-2-2,26.8,20.3,12.6,13.5,5.3,-1.1,76,52,38,29.84,29.66,10,4,11,0.00
2013-2-3,25.7,21.1,13.6,18.4,16.2,11.6,91,81,69,29.67,29.37,6,1,7,0.00
2013-2-4,25.9,19.5,14.5,14.0,10.2,5.5,88,68,42,29.56,29.37,9,4,14,0.00
2013-2-5,27.0,21.3,16.9,19.8,13.4,7.7,92,71,55,29.62,29.55,3,2,7,0.00
2013-2-6,35.1,26.4,20.5,25.7,16.6,2.6,97,70,42,29.91,29.55,10,3,13,0.01
2013-2-7,29.7,21.1,8.8,7.5,3.8,1.9,80,49,30,30.12,29.92,103,4,103,0.00
2013-2-8,26.1,21.6,15.3,24.6,18.5,5.9,97,88,52,30.06,29.27,103,9,103,0.01
2013-2-9,21.7,16.0,10.6,19.8,13.0,1.7,96,88,66,29.83,29.25,22,8,104,0.00
2013-2-10,37.4,20.5,6.8,5.2,1.0,-3.3,73,46,18,30.03,29.84,5,2,7,0.00
2013-2-11,43.5,30.7,15.3,43.3,25.8,2.1,99,83,55,29.97,29.29,5,2,9,0.15
2013-2-12,41.7,35.6,32.2,37.9,28.5,23.2,99,76,57,29.55,29.30,11,5,16,0.00
2013-2-13,43.2,33.6,29.1,24.7,22.4,20.9,75,64,44,29.51,29.36,8,3,10,0.01
2013-2-14,45.1,33.8,22.8,24.9,21.5,19.0,87,63,35,29.63,29.36,6,2,6,0.00
2013-2-15,50.4,37.0,24.3,32.2,28.1,20.1,99,73,46,29.63,29.56,8,3,14,0.00
2013-2-16,36.7,31.7,25.0,30.1,25.6,17.0,99,79,61,29.60,29.35,10,3,14,0.06
2013-2-17,25.0,18.1,11.5,16.9,5.2,-1.8,90,58,39,29.35,29.10,15,7,18,0.00
2013-2-18,28.6,18.0,8.6,0.6,-2.0,-6.4,61,43,21,29.79,29.36,14,7,16,0.00
2013-2-19,45.3,33.2,15.3,40.9,23.2,0.3,99,69,47,29.80,29.26,9,3,14,0.15
2013-2-20,37.2,27.8,21.6,37.0,17.5,9.3,99,66,45,29.43,29.23,8,1,11,0.01
2013-2-21,29.7,24.0,19.8,15.3,12.4,10.3,77,62,46,29.85,29.42,19,6,19,0.00
2013-2-22,38.7,29.5,17.6,21.9,18.6,14.4,90,65,43,30.00,29.87,9,3,11,0.00
2013-2-23,34.0,31.0,28.6,31.6,27.6,22.2,99,87,76,29.95,29.54,7,3,8,0.00
2013-2-24,34.9,32.6,30.4,34.4,32.2,30.1,99,99,95,29.53,29.36,8,2,13,0.60
2013-2-25,43.0,32.6,25.2,35.8,30.2,24.9,99,91,66,29.88,29.54,7,1,7,0.19
2013-2-26,42.1,34.8,30.9,33.4,29.4,25.7,99,82,60,29.96,29.77,11,2,14,0.02
2013-2-27,39.4,35.1,32.2,39.1,34.6,29.1,99,98,87,29.77,29.25,16,5,20,1.31
2013-2-28,44.2,35.2,30.4,39.9,33.6,30.1,99,94,77,29.28,29.20,2,1,5,0.01
2013-3-1,44.2,35.1,30.2,34.5,28.6,25.4,99,79,55,29.35,29.20,10,2,15,0.00
2013-3-2,38.1,33.1,29.8,27.1,25.7,24.4,81,74,63,29.35,29.29,6,2,7,0.00
2013-3-3,38.5,30.3,26.8,29.1,25.1,21.5,94,81,63,29.31,29.24,6,3,7,0.00
2013-3-4,37.4,29.7,23.0,23.4,20.9,17.8,83,70,54,29.42,29.27,8,5,11,0.00
2013-3-5,43.9,33.5,24.6,29.1,24.4,19.8,85,70,50,29.72,29.43,8,2,9,0.00
2013-3-6,37.2,33.0,30.2,33.7,31.7,29.1,99,95,82,29.71,29.67,14,6,17,0.12
2013-3-7,32.9,29.5,27.3,30.6,28.5,27.1,99,96,87,29.68,29.64,15,8,22,0.01
2013-3-8,36.5,30.7,27.3,33.7,28.5,24.1,99,92,73,29.81,29.58,13,6,23,0.01
2013-3-9,56.1,38.6,24.6,28.1,19.8,8.7,88,54,16,29.98,29.81,7,2,12,0.05
2013-3-10,48.9,36.0,21.0,31.9,27.0,19.8,97,72,48,30.03,29.94,6,2,8,0.00
2013-3-11,51.6,40.5,32.0,41.7,34.6,30.7,98,82,52,29.95,29.81,7,3,8,0.00
2013-3-12,52.5,47.4,42.1,50.5,46.2,38.8,99,96,85,29.80,29.40,8,3,12,0.47
2013-3-13,47.3,38.9,28.6,38.2,27.3,19.3,92,66,37,29.45,29.39,8,3,11,0.00
2013-3-14,34.0,27.1,18.7,24.7,13.6,6.0,70,57,40,29.48,29.38,8,4,14,0.76
2013-3-15,37.2,27.1,16.3,28.4,14.3,3.4,96,61,28,29.50,29.31,9,4,11,0.00
2013-3-16,36.0,30.0,20.3,27.5,15.4,8.4,95,57,32,29.52,29.35,6,2,7,0.00
2013-3-17,35.6,27.0,17.2,16.5,8.8,-0.8,83,50,23,30.18,29.52,9,2,12,0.00
2013-3-18,37.4,25.9,11.3,21.5,3.9,-3.8,80,43,18,30.31,30.10,9,2,9,0.00
2013-3-19,33.1,29.4,25.3,32.8,29.0,23.4,99,98,88,30.08,29.53,18,4,21,0.00
2013-3-20,36.0,28.4,21.4,27.5,19.8,16.2,99,72,48,29.71,29.61,11,2,11,0.09
2013-3-21,38.7,27.8,17.2,23.9,16.7,9.6,89,66,32,29.72,29.51,5,1,7,0.04
2013-3-22,39.0,29.4,18.9,22.8,17.6,13.8,80,62,42,29.67,29.54,8,4,11,0.00
2013-3-23,39.7,32.1,25.2,23.5,19.2,16.4,86,60,39,29.72,29.60,12,5,20,0.00
2013-3-24,46.4,36.4,27.7,23.3,21.3,18.0,75,56,36,29.74,29.65,10,3,13,0.00
2013-3-25,43.3,34.6,28.2,29.4,25.9,21.1,80,71,56,29.67,29.43,10,4,14,0.00
2013-3-26,43.9,36.2,29.8,28.3,24.5,18.5,84,64,42,29.72,29.47,8,2,8,0.00
2013-3-27,50.7,37.9,23.7,29.7,23.0,18.0,80,58,33,29.80,29.69,8,2,11,0.00
2013-3-28,49.3,39.5,32.7,35.1,30.9,26.6,98,73,47,29.95,29.80,8,2,8,0.02
2013-3-29,57.0,42.9,30.9,34.8,30.2,26.2,93,64,35,29.98,29.91,7,2,8,0.00
2013-3-30,54.9,42.6,29.8,31.4,21.8,11.4,89,51,18,30.70,29.93,8,2,11,0.00
2013-3-31,57.2,42.3,26.1,39.3,25.3,18.1,93,56,22,30.04,29.66,12,4,13,0.01
2013-4-1,59.5,42.8,30.6,43.6,34.5,10.8,99,75,40,29.72,29.47,11,5,15,0.18
2013-4-2,37.0,30.1,25.0,18.5,13.4,9.2,67,50,34,29.85,29.72,12,6,17,0.00
2013-4-3,41.2,32.6,25.5,17.3,12.9,6.8,63,46,25,30.07,29.84,15,7,16,0.00
2013-4-4,51.4,38.1,26.1,25.3,15.7,7.0,68,44,18,30.19,29.97,10,4,11,0.00
2013-4-5,58.6,43.4,33.6,28.8,23.6,12.1,80,51,17,29.97,29.59,11,4,11,0.00
2013-4-6,43.7,35.5,27.7,27.3,7.9,-5.8,73,36,12,30.22,29.82,11,3,19,0.00
2013-4-7,53.6,40.3,26.2,40.3,24.6,11.4,89,55,27,30.22,29.92,12,4,16,0.00
2013-4-8,64.9,51.1,41.0,42.5,38.0,30.9,99,66,30,30.01,29.89,7,3,9,0.00
2013-4-9,69.1,54.8,44.4,52.8,43.6,39.4,99,69,39,29.99,29.81,10,3,85,0.05
2013-4-10,64.8,52.1,44.2,52.3,46.3,41.4,99,82,56,29.93,29.77,7,2,7,0.21
2013-4-11,55.6,47.1,36.1,48.1,37.9,25.1,99,73,46,30.05,29.76,11,3,11,0.07
2013-4-12,36.5,34.8,34.2,35.1,34.0,31.6,99,97,87,30.05,29.70,14,5,17,0.51
2013-4-13,51.1,41.6,32.7,37.6,34.3,32.2,99,78,51,29.87,29.67,12,3,12,0.05
2013-4-14,50.9,41.3,30.7,39.9,30.5,24.6,98,68,39,30.14,29.85,8,3,11,0.00
2013-4-15,59.0,44.6,28.6,34.7,30.2,24.7,89,60,37,30.29,30.14,5,2,7,0.00
2013-4-16,64.4,50.7,37.0,51.6,41.5,29.9,93,72,48,30.30,30.02,13,5,14,0.01
2013-4-17,66.2,55.2,44.1,53.0,35.9,23.7,99,55,22,30.25,30.01,9,3,11,0.01
2013-4-18,61.2,50.9,37.8,45.1,32.8,27.6,85,52,32,30.32,30.07,10,4,11,0.00
2013-4-19,70.9,60.4,49.5,62.7,57.5,46.2,99,91,67,30.06,29.61,14,6,18,0.00
2013-4-20,63.3,49.9,38.5,62.0,38.0,21.9,99,67,35,30.14,29.58,10,5,14,0.33
2013-4-21,52.7,40.7,29.5,27.1,19.8,13.4,74,46,22,30.56,30.16,10,3,14,0.00
2013-4-22,52.2,40.9,28.4,32.8,27.1,20.3,92,62,30,30.62,30.48,12,4,14,0.00
2013-4-23,38.7,36.5,34.5,38.2,34.5,29.7,99,92,80,30.47,30.10,8,4,11,0.00
2013-4-24,73.4,54.4,38.5,47.3,42.0,35.8,99,70,26,30.00,29.75,13,5,14,0.00
2013-4-25,60.4,50.9,37.4,51.5,33.4,18.1,99,57,21,30.19,29.78,8,4,11,0.04
2013-4-26,63.1,50.1,35.4,37.9,31.1,25.8,74,50,27,30.33,30.20,8,3,12,0.00
2013-4-27,65.8,50.8,32.0,41.0,33.6,29.3,96,58,26,30.33,30.20,5,2,7,0.00
2013-4-28,60.6,53.0,35.1,42.6,36.8,32.7,91,58,42,30.26,30.21,4,2,4,0.00
2013-4-29,59.7,59.7,59.7,37.2,37.2,37.2,43,43,43,30.25,30.25,2,2,4,0.00
2013-4-30,72.1,59.5,43.7,37.2,26.8,8.8,50,33,10,30.25,29.63,9,3,10,1.22
2013-5-1,72.7,56.7,34.9,39.6,30.2,19.0,74,42,15,30.07,29.96,9,2,9,0.00
2013-5-2,78.6,60.0,43.3,43.6,38.4,33.4,87,51,20,30.07,29.91,11,3,15,0.00
2013-5-3,62.6,51.9,40.5,43.6,40.1,35.6,88,66,45,30.09,29.98,8,3,9,0.00
2013-5-4,66.6,52.3,37.4,46.4,36.5,28.0,98,61,25,29.98,29.87,8,3,11,0.00
2013-5-5,71.8,51.6,32.9,40.7,36.9,32.2,97,60,29,29.91,29.83,5,2,10,0.13
2013-5-6,71.8,55.5,36.5,49.0,41.3,34.7,99,65,30,29.87,29.74,5,2,8,0.00
2013-5-7,76.6,61.9,42.8,56.6,49.4,41.2,96,67,36,29.79,29.70,5,2,8,0.00
2013-5-8,69.8,60.9,53.8,62.5,58.3,51.9,99,92,67,29.80,29.66,6,2,11,0.13
2013-5-9,66.6,58.4,53.6,60.1,57.2,53.3,99,96,73,29.66,29.50,4,1,7,0.27
2013-5-10,76.5,64.6,52.0,61.8,55.0,50.4,99,75,40,29.59,29.53,4,1,7,0.00
2013-5-11,64.8,60.8,57.0,62.2,59.0,54.4,99,94,75,29.54,29.32,6,3,10,0.15
2013-5-12,65.5,57.6,45.9,59.6,50.0,31.7,99,78,47,29.43,29.21,7,2,8,0.02
2013-5-13,54.1,46.7,41.2,32.9,29.1,25.8,72,51,34,30.06,29.44,5,3,7,0.54
2013-5-14,55.0,46.8,38.1,34.9,30.2,25.9,81,55,34,30.07,30.00,6,2,8,0.00
2013-5-15,62.2,47.4,32.9,52.7,39.1,29.9,99,77,36,30.08,29.73,7,2,10,0.01
2013-5-16,77.5,65.0,47.7,52.8,41.4,31.6,99,51,19,29.84,29.70,6,2,12,0.01
2013-5-17,66.2,56.9,45.0,41.9,39.0,33.1,84,53,30,30.23,29.85,8,2,11,0.00
2013-5-18,69.8,57.7,40.5,49.9,41.6,36.2,97,60,30,30.33,30.24,4,1,8,0.00
2013-5-19,66.6,57.3,47.5,55.1,50.7,46.1,99,80,56,30.36,30.24,4,2,7,0.04
2013-5-20,78.1,65.8,54.1,65.8,61.1,53.9,99,86,64,30.22,29.97,4,1,6,0.01
2013-5-21,85.1,67.2,46.6,69.8,61.3,26.4,99,84,45,30.01,29.81,9,2,11,1.41
2013-5-22,77.2,61.4,48.9,71.7,59.7,48.7,99,94,79,30.01,29.83,5,2,9,0.12
2013-5-23,69.4,64.1,55.8,69.2,63.9,55.5,99,99,99,29.88,29.77,7,2,8,0.50
2013-5-24,68.2,59.4,44.4,67.4,58.4,44.2,99,96,84,29.80,29.63,6,1,6,1.06
2013-5-25,46.6,43.3,37.8,46.3,43.0,37.5,99,99,99,29.80,29.70,5,2,100,0.44
2013-5-26,53.2,45.5,36.7,45.0,40.2,36.4,99,83,62,30.07,29.70,11,3,11,0.01
2013-5-27,67.8,53.9,36.9,46.1,39.4,32.4,99,65,28,30.13,30.05,7,1,8,0.00
2013-5-28,71.8,59.4,42.4,54.7,44.6,39.0,97,63,31,30.19,30.12,4,1,5,0.00
2013-5-29,73.8,62.4,55.8,71.0,61.6,55.1,99,97,87,30.14,29.96,4,1,6,0.65
2013-5-30,83.8,72.7,60.4,72.2,66.9,60.2,99,83,58,30.08,30.00,3,1,4,0.01
2013-5-31,89.1,77.6,62.6,75.4,65.9,59.7,99,71,40,30.09,29.94,4,1,4,0.00
2013-6-1,87.6,76.9,62.4,70.0,66.1,61.8,99,72,44,29.98,29.86,5,2,6,0.00
2013-6-2,85.8,75.0,66.0,71.0,67.6,62.1,99,80,45,29.88,29.72,8,2,11,0.02
2013-6-3,74.1,66.4,56.7,69.1,63.2,49.4,99,90,70,29.83,29.75,3,0,3,0.43
2013-6-4,68.0,58.6,47.5,49.8,44.9,39.0,93,62,46,30.06,29.82,5,1,8,0.01
2013-6-5,70.2,60.3,45.9,54.1,48.4,44.6,99,68,42,30.15,30.06,4,1,4,0.00
2013-6-6,69.8,60.6,48.9,54.1,51.0,47.0,97,73,48,30.15,30.06,4,1,5,0.01
2013-6-7,56.8,53.8,51.1,56.6,53.5,50.8,99,99,98,30.05,29.77,11,3,14,1.15
2013-6-8,73.2,59.9,50.5,64.8,57.0,50.3,99,91,73,29.99,29.59,6,2,9,0.47
2013-6-9,73.9,64.3,51.8,62.7,55.9,51.5,99,77,50,30.15,29.99,4,1,4,0.00
2013-6-10,71.8,60.2,53.2,62.7,58.1,53.0,99,93,63,30.16,29.94,8,1,11,0.43
2013-6-11,63.9,57.7,54.7,63.6,57.4,54.4,99,99,99,29.94,29.54,11,2,11,0.64
2013-6-12,66.6,60.4,53.4,58.3,54.8,51.6,99,83,65,29.81,29.56,7,2,10,0.01
2013-6-13,59.7,53.2,47.7,59.5,52.9,47.4,99,99,95,29.81,29.61,8,1,10,0.72
2013-6-14,69.6,57.4,49.5,58.1,53.6,49.2,99,88,58,29.77,29.59,8,2,11,0.61
2013-6-15,73.0,63.0,50.0,57.8,49.4,41.9,99,67,33,29.93,29.78,5,1,5,0.00
2013-6-16,72.7,64.4,49.1,63.4,55.3,47.3,96,73,56,29.93,29.69,3,1,3,0.00
2013-6-17,80.1,67.0,57.6,66.1,60.5,57.3,99,82,50,29.88,29.77,4,1,8,0.13
2013-6-18,74.3,61.5,55.2,68.1,60.0,55.0,99,96,72,29.91,29.85,4,1,8,0.84
2013-6-19,70.0,61.1,52.3,60.2,51.9,42.1,99,75,37,30.11,29.87,4,1,5,0.08
2013-6-20,73.9,63.4,46.8,59.5,51.7,46.5,99,70,40,30.22,30.12,3,1,4,0.00
2013-6-21,78.8,67.4,54.5,65.7,60.3,53.4,98,79,58,30.23,30.18,2,1,3,0.00
2013-6-22,79.7,70.5,59.4,64.6,60.2,56.4,94,72,45,30.20,30.09,3,1,4,0.00
2013-6-23,85.1,74.6,62.4,72.2,64.2,12.6,88,72,10,30.14,29.99,49,2,49,0.00
2013-6-24,87.3,76.4,66.9,74.8,69.9,12.6,99,83,10,30.03,29.88,49,2,49,0.12
2013-6-25,85.5,75.8,65.7,72.5,68.5,65.4,99,80,58,29.93,29.73,7,1,7,0.00
2013-6-26,82.4,74.3,68.0,72.7,69.5,67.7,99,86,67,29.82,29.73,2,1,4,0.00
2013-6-27,72.7,68.1,63.3,70.9,67.6,63.1,99,98,92,29.82,29.70,5,2,8,0.01
2013-6-28,63.3,62.1,60.4,63.1,61.8,60.2,99,99,99,29.71,29.53,6,2,10,0.22
2013-6-29,78.8,72.6,68.9,71.7,69.3,68.0,99,90,71,29.71,29.50,4,1,4,0.01
2013-6-30,82.6,73.2,-19.1,73.6,69.1,-59.1,99,88,10,29.91,29.71,4,1,4,2.46
2013-7-1,76.3,72.9,70.2,75.4,72.5,69.9,99,99,94,30.05,29.91,3,1,4,0.07
2013-7-2,79.3,74.6,71.2,75.1,72.6,71.0,99,94,82,30.16,30.04,3,1,4,0.00
2013-7-3,82.9,76.3,70.5,74.3,72.6,70.3,99,89,71,30.19,30.12,4,1,4,0.00
2013-7-4,86.5,79.4,71.8,77.2,73.9,71.5,99,84,65,30.20,30.10,4,1,5,0.00
2013-7-5,87.6,80.3,59.9,76.9,73.7,59.6,99,82,61,30.16,29.67,4,1,4,0.77
2013-7-6,86.2,79.5,71.6,76.4,73.3,69.1,99,83,64,29.95,29.85,2,1,4,0.00
2013-7-7,87.8,75.8,68.2,75.9,71.7,67.9,99,88,65,29.90,29.78,2,0,2,0.06
2013-7-8,83.8,76.2,70.0,76.8,71.8,68.9,99,87,65,29.90,29.77,4,1,4,0.00
2013-7-9,74.7,70.1,65.8,72.0,69.1,65.6,99,97,89,29.95,29.88,4,1,5,0.00
2013-7-10,82.6,72.7,66.6,77.2,71.5,66.3,99,96,79,29.91,29.66,4,1,5,0.02
2013-7-11,79.3,73.5,67.5,76.5,71.4,67.2,99,93,74,29.79,29.65,2,0,3,0.06
2013-7-12,75.4,70.3,66.0,67.4,62.1,56.8,99,76,66,30.03,29.79,7,2,11,0.00
2013-7-13,73.4,68.3,63.3,73.2,66.6,56.8,99,95,72,30.16,30.03,5,1,6,0.25
2013-7-14,84.7,77.7,71.1,79.1,73.3,70.8,99,87,66,30.17,30.07,2,0,2,0.01
2013-7-15,87.3,78.1,69.3,79.2,72.2,69.0,99,84,60,30.07,29.97,2,0,4,0.00
2013-7-16,87.4,78.4,67.5,73.9,70.5,67.2,99,79,52,30.03,29.98,3,1,5,0.00
2013-7-17,88.3,79.6,68.0,75.7,71.8,67.7,99,79,57,30.04,29.88,3,1,3,0.00
2013-7-18,89.1,81.4,72.9,77.0,74.0,72.3,99,80,59,29.89,29.80,4,0,5,0.00
2013-7-19,90.9,83.3,72.1,77.4,74.5,15.2,99,77,10,29.81,29.61,4,2,8,0.00
2013-7-20,88.2,83.6,68.0,77.2,74.7,65.1,93,75,68,29.68,29.55,3,2,5,0.39
2013-7-21,80.8,72.5,63.7,69.8,65.8,17.6,99,82,10,29.84,29.69,4,0,6,0.00
2013-7-22,81.0,72.5,64.2,71.5,68.5,64.0,99,88,67,29.85,29.73,6,1,8,0.00
2013-7-23,80.4,71.6,68.2,78.4,71.2,67.9,99,99,85,29.72,29.41,3,1,8,0.96
2013-7-24,80.8,72.9,64.6,76.6,67.4,59.0,99,84,64,29.81,29.46,3,1,4,0.01
2013-7-25,64.4,58.3,56.3,58.7,54.6,49.7,99,88,77,29.93,29.81,5,1,6,0.12
2013-7-26,68.0,61.3,59.2,64.8,60.2,58.9,99,96,86,29.97,29.84,4,3,5,7.19
2013-7-27,78.1,67.4,56.3,69.9,62.9,56.0,99,87,62,30.01,29.94,2,0,4,0.00
2013-7-28,79.2,70.2,60.1,71.3,66.2,59.8,99,88,67,29.96,29.91,3,0,3,0.00
2013-7-29,80.8,72.2,63.9,73.0,66.1,9.2,99,83,10,29.99,29.91,2,1,4,2.03
2013-7-30,75.7,68.1,57.9,62.3,59.4,57.0,99,76,55,30.06,29.99,5,1,5,0.00
2013-7-31,77.0,66.8,61.7,63.0,61.3,58.5,99,83,54,30.05,29.98,2,0,2,0.00
2013-8-1,76.1,65.2,57.2,69.9,63.1,56.9,99,93,72,30.00,29.82,3,1,6,0.07
2013-8-2,76.8,68.9,63.1,70.4,64.2,61.4,99,86,59,29.84,29.74,3,1,4,0.33
2013-8-3,74.3,66.3,59.7,67.0,62.9,59.5,99,89,67,29.83,29.74,3,1,4,0.01
2013-8-4,74.5,64.1,54.9,62.7,57.5,54.6,99,81,54,29.84,29.74,2,1,5,0.00
2013-8-5,70.2,60.5,50.9,57.5,50.2,42.2,99,73,37,29.99,29.84,5,1,10,0.00
2013-8-6,73.6,62.3,47.8,59.3,53.3,47.6,99,75,48,30.08,29.99,3,0,4,0.00
2013-8-7,74.5,65.3,53.6,64.9,57.6,53.3,99,79,49,30.12,30.05,4,1,5,0.00
2013-8-8,76.8,69.7,63.7,73.2,68.4,60.6,99,96,84,30.05,29.95,4,1,4,0.04
2013-8-9,74.3,71.4,70.3,74.1,71.2,70.1,99,99,99,29.97,29.71,5,1,7,1.15
2013-8-10,77.0,69.6,56.7,70.4,62.4,53.9,99,80,50,29.97,29.77,4,1,8,0.01
2013-8-11,73.2,62.6,50.7,61.9,55.9,50.5,99,81,54,30.04,29.95,4,0,4,0.00
2013-8-12,76.6,66.7,56.5,67.7,59.7,56.2,99,81,54,29.98,29.87,2,0,4,0.00
2013-8-13,71.4,65.8,61.2,68.6,64.7,60.9,99,96,83,29.87,29.65,4,0,5,0.00
2013-8-14,68.5,62.1,53.4,64.9,55.6,52.3,99,81,59,29.91,29.64,4,1,7,0.00
2013-8-15,71.1,59.8,48.4,60.1,53.0,48.1,99,81,50,30.06,29.92,3,1,4,0.00
2013-8-16,72.7,62.1,50.4,61.8,55.5,50.1,99,81,53,30.14,30.05,2,0,4,0.00
2013-8-17,76.3,65.6,53.1,65.0,59.2,52.8,99,82,55,30.22,30.15,3,0,4,0.00
2013-8-18,76.5,66.3,55.9,67.0,61.8,55.7,99,87,62,30.22,30.03,2,0,2,0.00
2013-8-19,75.7,65.8,56.7,66.0,60.9,56.4,99,86,62,30.03,29.92,2,0,4,0.00
2013-8-20,78.8,69.3,59.0,67.4,62.9,58.7,99,82,57,30.05,29.95,2,0,3,0.00
2013-8-21,81.0,70.7,59.7,68.8,64.2,59.5,99,82,57,30.10,29.98,2,0,3,0.00
2013-8-22,79.9,71.2,60.6,72.4,67.8,60.4,99,89,73,30.00,29.79,3,1,4,0.00
2013-8-23,76.3,68.9,59.7,70.1,61.2,52.7,99,78,49,30.06,29.79,4,1,6,0.00
2013-8-24,72.3,63.5,53.6,54.9,51.2,48.0,93,66,42,30.27,30.06,4,1,7,0.00
2013-8-25,75.9,64.6,51.1,61.8,54.8,50.2,99,74,41,30.30,30.13,3,0,4,0.00
2013-8-26,76.1,68.3,60.3,67.7,62.9,57.6,99,84,67,30.14,29.84,3,1,4,0.06
2013-8-27,79.7,71.9,67.5,72.9,69.3,67.2,99,92,71,29.85,29.78,4,1,4,0.11
2013-8-28,81.9,72.4,62.4,73.5,67.8,62.2,99,87,60,29.89,29.79,4,1,6,0.00
2013-8-29,68.2,63.6,59.9,67.9,63.3,59.6,99,99,99,30.00,29.86,5,2,7,0.01
2013-8-30,77.7,67.2,58.5,69.5,64.9,58.2,99,93,74,29.96,29.79,2,1,2,0.00
2013-8-31,77.0,72.5,67.5,74.2,71.6,67.2,99,97,90,29.79,29.75,2,1,4,0.02
2013-9-1,75.6,71.4,66.9,75.3,71.1,66.7,99,99,99,29.83,29.75,2,0,4,0.53
2013-9-2,75.0,71.9,69.8,74.8,71.6,69.5,99,99,99,29.80,29.65,2,0,4,0.43
2013-9-3,76.3,69.1,58.8,73.4,67.1,58.6,99,93,82,29.77,29.65,2,0,2,0.00
2013-9-4,74.1,64.9,55.6,65.0,58.6,55.3,99,82,55,29.87,29.75,3,1,3,0.00
2013-9-5,68.0,60.4,47.7,64.1,54.1,45.0,99,82,50,30.07,29.82,4,0,5,0.00
2013-9-6,63.0,53.4,42.3,49.0,44.1,40.4,98,74,45,30.17,30.03,2,0,4,0.00
2013-9-7,72.0,61.9,46.9,59.3,52.6,45.5,98,74,48,30.03,29.81,2,1,2,0.00
2013-9-8,69.8,60.7,46.4,62.7,53.6,40.8,96,79,44,30.02,29.71,5,1,7,0.00
2013-9-9,64.6,54.0,40.3,51.8,45.7,39.8,99,76,49,30.16,30.02,2,1,4,0.00
2013-9-10,72.1,64.5,53.6,71.5,63.8,51.0,99,98,91,30.08,29.98,4,2,5,0.05
2013-9-11,88.9,78.2,69.1,79.2,73.3,67.9,99,86,60,30.03,29.91,3,1,7,0.00
2013-9-12,81.7,73.3,65.8,75.4,70.7,65.6,99,92,73,29.91,29.62,4,1,7,0.45
2013-9-13,73.6,65.3,57.0,70.0,63.8,56.8,99,95,77,29.72,29.53,7,1,7,0.11
2013-9-14,63.0,56.5,50.0,56.4,52.8,49.7,99,88,71,29.99,29.72,5,1,6,0.00
2013-9-15,64.8,54.8,43.9,55.4,49.5,43.6,99,84,53,30.10,29.99,2,0,3,0.00
2013-9-16,63.3,54.7,43.5,56.3,51.3,38.4,99,89,74,30.16,29.96,3,1,5,0.00
2013-9-17,57.7,47.3,36.1,45.0,39.6,34.6,99,77,50,30.33,30.16,4,1,8,0.00
2013-9-18,67.3,52.7,39.0,51.8,45.4,38.8,99,80,44,30.25,30.09,3,0,3,0.00
2013-9-19,72.7,58.5,45.9,57.5,51.7,45.6,99,81,48,30.09,29.99,2,0,3,0.00
2013-9-20,74.7,60.8,47.7,61.3,54.2,47.4,99,82,47,30.03,29.94,3,0,4,0.00
2013-9-21,70.2,62.6,53.2,66.2,60.4,53.0,99,93,79,29.96,29.67,4,2,9,0.00
2013-9-22,67.8,59.8,47.1,67.6,55.8,44.9,99,87,66,29.78,29.56,4,1,8,0.56
2013-9-23,57.9,49.0,41.4,45.5,43.0,40.8,98,81,59,29.94,29.78,4,1,8,0.00
2013-9-24,63.0,49.4,38.7,45.6,42.4,38.4,99,80,43,29.93,29.76,4,1,7,0.00
2013-9-25,66.4,54.1,41.4,56.2,48.7,41.1,99,83,62,29.91,29.80,6,1,6,0.00
2013-9-26,62.4,54.8,49.5,51.9,49.7,46.9,99,84,61,30.04,29.91,4,0,4,0.00
2013-9-27,62.4,55.5,48.9,54.2,51.6,48.7,99,87,69,30.19,30.04,4,1,6,0.00
2013-9-28,68.9,56.6,45.0,59.7,51.4,44.7,99,85,60,30.25,30.18,3,1,5,0.00
2013-9-29,64.2,53.5,45.0,55.9,47.7,44.2,99,83,51,30.19,30.04,4,1,5,0.00
2013-9-30,66.6,53.4,41.5,57.5,47.9,41.3,99,84,55,30.04,29.90,4,0,5,0.00
2013-10-1,72.9,59.0,46.4,59.2,53.2,46.1,99,84,53,29.91,29.81,4,1,10,0.00
2013-10-2,74.1,63.8,52.3,62.5,57.6,52.1,99,82,65,29.91,29.81,4,1,6,0.00
2013-10-3,70.5,59.9,50.5,57.5,51.7,47.4,99,77,44,30.03,29.91,2,0,2,0.00
2013-10-4,62.2,55.9,50.5,59.3,54.9,49.6,99,97,87,30.02,29.96,4,0,4,0.26
2013-10-5,67.5,60.9,56.1,62.8,59.5,55.9,99,95,84,30.05,29.98,2,0,4,0.06
2013-10-6,58.6,54.7,52.2,58.4,54.4,51.9,99,99,99,30.12,30.03,6,2,9,0.43
2013-10-7,73.6,62.5,54.1,71.2,61.5,53.9,99,97,83,30.04,29.74,9,2,15,0.21
2013-10-8,61.7,52.9,43.0,55.1,45.9,40.2,99,80,46,30.29,29.85,8,1,8,0.00
2013-10-9,59.4,50.2,42.6,46.8,43.6,39.5,97,79,58,30.37,30.27,5,1,11,0.00
2013-10-10,57.9,50.4,41.9,52.7,48.2,41.6,99,93,82,30.27,30.09,5,1,7,0.00
2013-10-11,67.3,56.6,46.8,57.2,49.6,42.7,99,79,55,30.08,30.01,6,1,7,0.00
2013-10-12,54.5,52.7,50.5,52.0,48.9,47.0,97,87,78,30.18,30.07,4,1,7,0.00
2013-10-13,56.3,50.6,43.7,51.0,48.1,43.2,99,91,79,30.34,30.27,7,2,7,0.00
2013-10-14,62.8,47.8,35.8,50.1,41.4,35.5,99,82,44,30.31,30.16,3,0,4,0.00
2013-10-15,65.8,56.9,48.4,54.6,50.8,44.7,97,81,63,30.19,30.09,5,1,6,0.00
2013-10-16,57.6,53.0,49.1,53.0,50.5,47.7,99,92,77,30.10,29.85,5,1,6,0.00
2013-10-17,69.1,59.6,49.1,62.6,56.6,48.8,99,91,65,29.85,29.66,5,1,6,0.00
2013-10-18,63.7,58.2,48.0,60.9,49.9,39.8,99,75,55,29.84,29.56,10,3,14,0.01
2013-10-19,63.9,52.6,39.2,48.1,41.6,37.3,96,69,42,29.90,29.68,5,2,8,0.00
2013-10-20,58.5,50.2,37.4,51.4,39.7,31.3,99,71,37,29.95,29.63,11,2,11,0.02
2013-10-21,64.6,49.8,35.8,43.8,39.0,33.5,94,70,38,30.03,29.92,4,1,6,0.00
2013-10-22,62.1,51.7,44.2,52.5,45.6,37.2,99,80,62,29.91,29.65,5,2,8,0.00
2013-10-23,47.3,40.9,32.9,38.5,34.3,31.4,95,78,57,29.73,29.51,4,0,4,0.00
2013-10-24,50.4,42.1,34.5,35.4,29.6,22.3,91,64,35,29.81,29.58,7,2,10,0.00
2013-10-25,46.6,38.6,31.8,35.2,28.7,25.2,93,69,46,30.06,29.81,7,2,11,0.00
2013-10-26,51.8,41.1,28.9,35.0,29.5,25.5,95,66,37,30.06,29.79,8,3,13,0.00
2013-10-27,51.8,44.4,34.5,35.9,32.1,28.4,80,63,44,29.97,29.72,9,2,13,0.00
2013-10-28,54.3,41.7,28.6,35.2,30.9,25.6,94,68,45,30.24,29.98,8,2,13,0.00
2013-10-29,45.7,34.6,27.0,28.3,21.9,16.6,85,62,32,30.33,30.24,5,1,8,0.00
2013-10-30,52.2,39.0,29.1,41.5,32.6,21.9,96,78,66,30.26,30.10,3,1,6,0.00
2013-10-31,59.2,49.3,35.1,58.9,48.9,34.0,99,98,95,30.14,29.73,8,2,12,0.09
2013-11-1,65.7,61.1,56.1,63.2,57.8,51.4,99,89,76,29.72,29.42,18,6,18,0.18
2013-11-2,63.3,51.8,40.5,51.0,43.4,39.5,99,76,45,29.67,29.55,4,1,7,0.00
2013-11-3,45.1,41.4,37.2,44.6,28.8,20.1,99,65,39,30.06,29.67,11,3,11,0.01
2013-11-4,63.9,39.7,24.4,41.7,20.1,11.8,78,47,32,30.06,29.23,4,2,8,0.32
2013-11-5,49.1,36.7,23.5,36.4,28.0,18.8,87,72,48,30.01,29.84,6,1,7,0.00
2013-11-6,57.9,49.3,39.0,48.5,42.4,35.2,92,78,57,29.83,29.40,8,3,10,0.00
2013-11-7,60.6,50.5,37.6,57.8,48.1,27.8,99,91,65,29.40,29.06,12,4,13,0.18
2013-11-8,43.9,35.7,26.8,35.0,26.0,21.6,90,68,47,29.43,29.17,11,3,14,0.00
2013-11-9,41.0,35.3,28.4,30.2,24.6,20.6,79,65,48,29.54,29.36,7,2,10,0.00
2013-11-10,52.7,43.4,39.6,39.4,35.4,29.9,91,74,55,29.35,29.11,13,4,15,0.02
2013-11-11,47.8,42.3,35.4,30.0,27.2,25.3,68,55,41,29.44,29.23,10,4,13,0.00
2013-11-12,46.4,31.9,23.5,37.1,24.3,14.7,99,74,53,29.51,29.24,9,2,14,0.06
2013-11-13,32.2,26.0,20.3,16.6,13.7,9.4,78,60,39,29.60,29.49,9,3,10,0.00
2013-11-14,49.1,37.7,26.6,22.5,18.9,15.8,65,48,33,29.49,29.39,11,4,13,0.00
2013-11-15,59.4,44.0,28.8,28.8,17.6,4.7,59,38,11,29.54,29.46,9,2,9,0.00
2013-11-16,56.7,44.1,34.3,32.6,28.5,24.5,86,56,32,29.66,29.54,4,1,5,0.00
2013-11-17,54.5,46.7,34.2,54.2,45.0,30.9,99,94,80,29.65,29.20,4,2,11,0.06
2013-11-18,61.5,56.2,44.4,60.4,46.6,32.5,99,72,45,29.19,28.92,9,4,12,0.17
2013-11-19,44.1,36.3,27.5,31.9,22.2,17.3,65,57,47,29.61,29.05,16,5,17,0.00
2013-11-20,38.8,29.0,21.7,16.4,13.5,7.4,69,54,27,29.93,29.61,12,3,13,0.00
2013-11-21,44.2,33.4,19.8,33.6,21.5,12.5,79,63,41,29.94,29.72,8,1,8,0.00
2013-11-22,46.2,43.5,39.6,46.0,42.4,33.9,99,96,80,29.71,29.18,4,2,5,0.11
2013-11-23,46.4,36.3,24.8,46.1,26.1,15.4,99,68,44,29.28,29.15,15,5,21,0.02
2013-11-24,24.4,19.5,16.2,17.8,3.6,-5.0,79,51,28,29.51,29.16,21,7,21,0.00
2013-11-25,29.7,21.8,13.1,16.0,4.3,-8.1,60,47,25,29.67,29.50,10,4,13,0.00
2013-11-26,36.9,31.5,25.3,34.5,22.2,11.7,99,69,49,29.64,29.36,8,3,9,0.13
2013-11-27,60.8,45.7,33.1,60.5,45.4,31.6,99,99,93,29.34,28.63,11,4,16,1.48
2013-11-28,33.4,25.9,18.9,31.4,15.3,7.5,92,65,42,29.74,28.86,0,0,0,0.00
2013-11-29,30.6,23.4,14.9,17.2,11.6,5.0,83,61,45,30.03,29.74,6,0,7,0.00
2013-11-30,29.8,21.5,10.4,22.0,11.7,5.2,80,66,51,30.06,29.72,6,1,10,0.00
2013-12-1,38.5,34.1,27.9,38.2,32.7,22.2,99,95,79,29.72,29.35,4,1,4,0.07
2013-12-2,37.2,34.8,30.7,37.0,34.6,30.5,99,99,99,29.35,29.25,2,0,4,0.01
2013-12-3,45.7,34.3,27.7,42.9,32.5,27.5,99,94,71,29.30,29.20,6,1,8,0.00
2013-12-4,42.4,32.5,26.2,31.3,28.8,26.0,99,87,61,29.52,29.30,4,1,6,0.00
2013-12-5,54.0,43.3,31.8,53.7,42.2,30.3,99,96,86,29.53,29.27,6,2,8,0.04
2013-12-6,54.3,44.8,32.7,54.1,44.5,32.5,99,99,95,29.48,29.23,7,2,11,0.25
2013-12-7,35.4,30.6,23.9,33.6,28.1,21.6,99,90,76,29.76,29.41,6,0,7,0.02
2013-12-8,27.5,24.0,16.9,22.4,18.0,14.8,94,78,62,29.88,29.76,0,0,0,0.00
2013-12-9,33.4,29.2,22.1,33.2,28.3,17.9,99,96,74,29.78,29.22,6,1,10,0.00
2013-12-10,32.2,28.5,19.6,31.9,27.8,17.4,99,97,89,29.32,29.12,0,0,0,0.00
2013-12-11,27.5,21.5,16.2,19.8,17.6,14.3,95,85,70,29.52,29.33,0,0,0,0.00
2013-12-12,21.7,16.3,8.4,16.8,7.7,1.3,91,70,44,29.57,29.37,0,0,0,0.00
2013-12-13,25.5,18.7,12.4,18.4,10.4,5.7,81,70,59,29.64,29.30,10,1,11,0.00
2013-12-14,17.6,11.3,8.6,16.9,4.4,-3.6,97,74,50,29.85,29.42,10,3,14,0.00
2013-12-15,25.3,23.2,17.6,25.1,22.9,16.9,99,99,97,29.40,28.78,16,5,17,0.00
2013-12-16,24.1,19.7,11.7,22.0,14.5,5.6,99,80,65,29.49,29.06,10,4,12,0.01
2013-12-17,19.6,9.2,-0.9,18.9,6.7,-3.8,98,89,77,29.54,29.25,7,2,10,0.00
2013-12-18,28.4,21.9,15.8,27.5,21.0,14.6,99,96,93,29.39,29.20,9,3,9,0.00
2013-12-19,39.4,30.8,15.4,25.9,22.6,14.3,99,73,53,29.45,29.29,11,3,12,0.00
2013-12-20,52.5,41.7,29.8,33.3,30.2,24.8,82,65,46,29.45,29.26,6,2,8,0.15
2013-12-21,59.0,50.2,42.8,50.3,42.1,31.7,91,74,62,29.32,29.23,8,4,9,0.00
2013-12-22,63.3,54.3,36.1,62.0,52.9,35.9,99,95,80,29.33,29.12,11,5,14,0.00
2013-12-23,40.5,35.2,32.0,40.2,35.0,31.8,99,99,96,29.43,29.29,6,2,8,0.45
2013-12-24,35.2,28.9,21.9,34.0,20.9,10.6,95,72,53,29.52,29.38,8,2,11,0.00
2013-12-25,21.7,16.1,11.1,11.5,3.9,0.9,70,58,46,29.81,29.53,11,3,13,0.00
2013-12-26,30.2,22.8,14.0,29.2,19.4,5.1,97,87,67,29.77,29.41,5,2,6,0.00
2013-12-27,30.6,25.4,17.2,22.2,19.8,16.1,98,80,64,29.59,29.51,6,2,8,0.00
2013-12-28,43.3,33.6,24.1,27.6,24.7,19.8,87,70,52,29.54,29.35,8,3,11,0.04
2013-12-29,42.1,35.8,31.3,37.3,31.4,25.2,99,84,63,29.38,28.79,11,2,18,0.77
2013-12-30,39.7,29.0,14.0,35.2,21.4,7.5,99,75,42,29.46,28.90,11,4,17,0.00
2013-12-31,21.6,15.9,9.0,15.4,8.5,4.4,86,73,53,29.49,29.32,12,2,13,0.00
2014-1-1,24.3,18.2,14.2,11.9,7.1,3.1,79,62,46,29.66,29.49,9,2,9,0.00
2014-1-2,17.6,10.0,-0.4,14.1,7.4,-3.0,91,89,77,29.64,29.10,17,5,19,0.00